createdAt,value
2023-05-19T00:00:04.727Z,68.59
2023-05-19T00:01:04.721Z,69.20
2023-05-19T00:02:04.741Z,67.36
2023-05-19T00:03:04.953Z,69.31
2023-05-19T00:04:04.673Z,69.31
2023-05-19T00:05:04.659Z,69.71
2023-05-19T00:06:04.692Z,70.33
2023-05-19T00:07:04.651Z,69.61
2023-05-19T00:08:04.637Z,68.18
2023-05-19T00:09:04.612Z,69.51
2023-05-19T00:10:04.751Z,69.85
2023-05-19T00:11:04.623Z,70.36
2023-05-19T00:12:04.724Z,69.75
2023-05-19T00:13:04.576Z,69.13
2023-05-19T00:14:04.568Z,68.93
2023-05-19T00:15:04.545Z,69.03
2023-05-19T00:16:04.559Z,68.62
2023-05-19T00:17:04.563Z,69.24
2023-05-19T00:18:04.581Z,68.52
2023-05-19T00:19:04.582Z,68.73
2023-05-19T00:20:04.480Z,69.13
2023-05-19T00:21:04.466Z,69.24
2023-05-19T00:22:04.494Z,68.73
2023-05-19T00:23:04.487Z,68.11
2023-05-19T00:24:04.476Z,69.95
2023-05-19T00:25:04.442Z,68.93
2023-05-19T00:26:04.406Z,68.21
2023-05-19T00:27:04.410Z,68.14
2023-05-19T00:28:04.459Z,68.55
2023-05-19T00:29:04.385Z,70.09
2023-05-19T00:30:04.402Z,69.06
2023-05-19T00:31:04.373Z,69.89
2023-05-19T00:32:04.381Z,69.89
2023-05-19T00:33:04.356Z,70.81
2023-05-19T00:34:04.365Z,70.40
2023-05-19T00:35:04.328Z,71.11
2023-05-19T00:36:04.358Z,71.42
2023-05-19T00:37:04.311Z,70.29
2023-05-19T00:38:04.288Z,69.98
2023-05-19T00:39:04.293Z,69.06
2023-05-19T00:40:04.265Z,69.89
2023-05-19T00:41:04.287Z,71.32
2023-05-19T00:42:04.252Z,70.60
2023-05-19T00:43:04.301Z,70.70
2023-05-19T00:44:04.275Z,68.96
2023-05-19T00:45:04.219Z,69.68
2023-05-19T00:46:04.263Z,70.19
2023-05-19T00:47:04.229Z,71.83
2023-05-19T00:48:04.268Z,70.29
2023-05-19T00:49:04.197Z,69.27
2023-05-19T00:50:04.156Z,68.86
2023-05-19T00:51:04.301Z,69.06
2023-05-19T00:52:04.163Z,72.96
2023-05-19T00:53:04.183Z,70.60
2023-05-19T00:54:04.131Z,70.60
2023-05-19T00:55:04.116Z,70.29
2023-05-19T00:56:04.107Z,70.09
2023-05-19T00:57:04.109Z,69.40
2023-05-19T00:58:04.085Z,69.61
2023-05-19T00:59:04.066Z,71.04
2023-05-19T01:00:04.064Z,73.47
2023-05-19T01:01:05.019Z,73.16
2023-05-19T01:02:04.043Z,69.47
2023-05-19T01:03:04.080Z,70.50
2023-05-19T01:04:04.143Z,71.93
2023-05-19T01:05:04.003Z,69.10
2023-05-19T01:06:04.004Z,71.25
2023-05-19T01:07:04.011Z,71.35
2023-05-19T01:08:03.992Z,69.40
2023-05-19T01:09:03.968Z,69.61
2023-05-19T01:10:03.978Z,70.84
2023-05-19T01:11:03.974Z,70.12
2023-05-19T01:12:03.995Z,69.61
2023-05-19T01:13:03.933Z,69.92
2023-05-19T01:14:03.930Z,70.94
2023-05-19T01:15:03.897Z,70.43
2023-05-19T01:16:03.923Z,70.84
2023-05-19T01:17:03.955Z,69.81
2023-05-19T01:18:03.917Z,72.27
2023-05-19T01:19:04.020Z,71.35
2023-05-19T01:20:03.878Z,70.32
2023-05-19T01:21:03.881Z,70.22
2023-05-19T01:22:03.853Z,69.71
2023-05-19T01:23:03.851Z,70.43
2023-05-19T01:24:03.855Z,70.43
2023-05-19T01:25:03.810Z,70.36
2023-05-19T01:26:03.781Z,71.18
2023-05-19T01:27:03.819Z,70.87
2023-05-19T01:28:03.783Z,71.59
2023-05-19T01:29:03.833Z,71.28
2023-05-19T01:30:03.781Z,70.56
2023-05-19T01:31:03.784Z,71.69
2023-05-19T01:32:03.747Z,71.59
2023-05-19T01:33:03.770Z,73.95
2023-05-19T01:34:03.774Z,71.90
2023-05-19T01:35:03.715Z,72.72
2023-05-19T01:36:03.780Z,71.80
2023-05-19T01:37:03.694Z,72.82
2023-05-19T01:38:03.655Z,73.13
2023-05-19T01:39:03.651Z,73.95
2023-05-19T01:40:03.717Z,73.64
2023-05-19T01:41:03.652Z,70.77
2023-05-19T01:42:03.639Z,71.80
2023-05-19T01:43:03.627Z,73.44
2023-05-19T01:44:03.638Z,72.41
2023-05-19T01:45:03.621Z,71.48
2023-05-19T01:46:03.645Z,71.18
2023-05-19T01:47:03.609Z,71.39
2023-05-19T01:48:03.596Z,71.80
2023-05-19T01:49:03.587Z,72.61
2023-05-19T01:50:03.590Z,71.28
2023-05-19T01:51:03.558Z,71.08
2023-05-19T01:52:03.513Z,72.92
2023-05-19T01:53:03.559Z,71.80
2023-05-19T01:54:03.532Z,73.02
2023-05-19T01:55:03.509Z,71.48
2023-05-19T01:56:03.495Z,72.00
2023-05-19T01:57:03.523Z,72.51
2023-05-19T01:58:03.500Z,72.51
2023-05-19T01:59:03.468Z,71.28
2023-05-19T02:00:03.468Z,72.72
2023-05-19T02:01:03.488Z,72.96
2023-05-19T02:02:03.457Z,73.33
2023-05-19T02:03:03.554Z,74.26
2023-05-19T02:04:03.539Z,71.59
2023-05-19T02:05:03.400Z,72.55
2023-05-19T02:06:03.397Z,72.03
2023-05-19T02:07:03.382Z,71.52
2023-05-19T02:08:03.411Z,72.14
2023-05-19T02:09:03.422Z,75.73
2023-05-19T02:10:03.374Z,73.36
2023-05-19T02:11:03.368Z,73.06
2023-05-19T02:12:03.331Z,74.29
2023-05-19T02:13:03.337Z,73.06
2023-05-19T02:14:03.301Z,73.16
2023-05-19T02:15:03.313Z,73.68
2023-05-19T02:16:03.343Z,72.55
2023-05-19T02:17:03.318Z,73.16
2023-05-19T02:18:03.281Z,73.57
2023-05-19T02:19:03.321Z,74.91
2023-05-19T02:20:03.273Z,74.49
2023-05-19T02:21:03.253Z,73.47
2023-05-19T02:22:03.218Z,73.36
2023-05-19T02:23:03.231Z,73.36
2023-05-19T02:24:03.247Z,73.47
2023-05-19T02:25:03.298Z,75.01
2023-05-19T02:26:03.192Z,73.88
2023-05-19T02:27:03.293Z,72.89
2023-05-19T02:28:03.224Z,73.50
2023-05-19T02:29:03.243Z,76.04
2023-05-19T02:30:03.131Z,73.50
2023-05-19T02:31:03.150Z,73.50
2023-05-19T02:32:03.150Z,73.40
2023-05-19T02:33:03.175Z,74.12
2023-05-19T02:34:03.077Z,73.91
2023-05-19T02:35:03.085Z,73.30
2023-05-19T02:36:03.100Z,73.50
2023-05-19T02:37:03.091Z,73.30
2023-05-19T02:38:03.093Z,72.58
2023-05-19T02:39:03.091Z,73.91
2023-05-19T02:40:03.087Z,73.10
2023-05-19T02:41:03.030Z,74.63
2023-05-19T02:42:03.031Z,72.89
2023-05-19T02:43:03.040Z,74.84
2023-05-19T02:44:03.026Z,72.58
2023-05-19T02:45:03.005Z,73.71
2023-05-19T02:46:03.087Z,73.61
2023-05-19T02:47:02.994Z,75.87
2023-05-19T02:48:03.082Z,73.40
2023-05-19T02:49:02.963Z,73.71
2023-05-19T02:50:02.952Z,74.53
2023-05-19T02:51:02.976Z,75.04
2023-05-19T02:52:03.139Z,75.15
2023-05-19T02:53:02.901Z,75.15
2023-05-19T02:54:02.901Z,73.71
2023-05-19T02:55:02.883Z,76.28
2023-05-19T02:56:02.965Z,77.61
2023-05-19T02:57:02.844Z,75.15
2023-05-19T02:58:02.851Z,74.12
2023-05-19T02:59:02.813Z,74.74
2023-05-19T03:00:02.794Z,74.63
2023-05-19T03:01:02.779Z,75.04
2023-05-19T03:02:02.922Z,75.25
2023-05-19T03:03:03.087Z,75.56
2023-05-19T03:04:02.827Z,75.25
2023-05-19T03:05:02.769Z,74.02
2023-05-19T03:06:02.782Z,74.05
2023-05-19T03:07:02.710Z,74.46
2023-05-19T03:08:02.678Z,73.95
2023-05-19T03:09:02.690Z,73.64
2023-05-19T03:10:02.670Z,74.77
2023-05-19T03:11:02.702Z,75.70
2023-05-19T03:12:02.713Z,75.18
2023-05-19T03:13:02.660Z,74.26
2023-05-19T03:14:02.662Z,74.67
2023-05-19T03:15:02.673Z,75.18
2023-05-19T03:16:02.677Z,75.38
2023-05-19T03:17:02.658Z,77.23
2023-05-19T03:18:02.621Z,73.95
2023-05-19T03:19:02.649Z,74.36
2023-05-19T03:20:02.589Z,76.00
2023-05-19T03:21:02.589Z,75.29
2023-05-19T03:22:02.569Z,74.87
2023-05-19T03:23:02.554Z,75.38
2023-05-19T03:24:02.566Z,75.38
2023-05-19T03:25:02.545Z,74.87
2023-05-19T03:26:02.552Z,75.80
2023-05-19T03:27:02.535Z,76.42
2023-05-19T03:28:02.517Z,74.36
2023-05-19T03:29:02.494Z,74.46
2023-05-19T03:30:04.935Z,74.57
2023-05-19T03:31:02.490Z,74.15
2023-05-19T03:32:02.473Z,74.77
2023-05-19T03:33:02.499Z,76.62
2023-05-19T03:34:02.439Z,75.08
2023-05-19T03:35:02.455Z,74.77
2023-05-19T03:36:02.420Z,74.98
2023-05-19T03:37:02.437Z,74.57
2023-05-19T03:38:02.427Z,74.57
2023-05-19T03:39:02.381Z,74.87
2023-05-19T03:40:02.368Z,75.90
2023-05-19T03:41:02.424Z,75.80
2023-05-19T03:42:02.348Z,75.38
2023-05-19T03:43:02.364Z,75.59
2023-05-19T03:44:02.317Z,74.87
2023-05-19T03:45:02.318Z,75.29
2023-05-19T03:46:02.507Z,76.10
2023-05-19T03:47:02.290Z,76.21
2023-05-19T03:48:02.425Z,75.38
2023-05-19T03:49:02.292Z,75.80
2023-05-19T03:50:02.255Z,75.90
2023-05-19T03:51:02.255Z,75.90
2023-05-19T03:52:02.329Z,75.38
2023-05-19T03:53:02.244Z,75.29
2023-05-19T03:54:02.247Z,74.98
2023-05-19T03:55:02.227Z,75.29
2023-05-19T03:56:02.186Z,76.42
2023-05-19T03:57:02.337Z,77.65
2023-05-19T03:58:02.167Z,76.31
2023-05-19T03:59:02.174Z,75.80
2023-05-19T04:00:02.226Z,76.10
2023-05-19T04:01:02.142Z,75.90
2023-05-19T04:02:02.184Z,74.87
2023-05-19T04:03:02.213Z,76.31
2023-05-19T04:04:02.156Z,75.49
2023-05-19T04:05:02.114Z,76.42
2023-05-19T04:06:02.108Z,76.51
2023-05-19T04:07:02.108Z,78.16
2023-05-19T04:08:02.101Z,75.08
2023-05-19T04:09:02.057Z,75.90
2023-05-19T04:10:02.136Z,76.21
2023-05-19T04:11:02.061Z,75.80
2023-05-19T04:12:02.028Z,75.52
2023-05-19T04:13:02.057Z,76.51
2023-05-19T04:14:02.032Z,75.83
2023-05-19T04:15:02.041Z,75.73
2023-05-19T04:16:02.072Z,77.27
2023-05-19T04:17:02.001Z,76.04
2023-05-19T04:18:02.078Z,77.37
2023-05-19T04:19:02.039Z,76.65
2023-05-19T04:20:01.979Z,77.68
2023-05-19T04:21:01.963Z,76.76
2023-05-19T04:22:01.937Z,76.04
2023-05-19T04:23:01.925Z,75.63
2023-05-19T04:24:01.966Z,77.37
2023-05-19T04:25:01.923Z,76.25
2023-05-19T04:26:01.977Z,76.45
2023-05-19T04:27:01.871Z,76.97
2023-05-19T04:28:01.896Z,76.35
2023-05-19T04:29:01.860Z,77.55
2023-05-19T04:30:01.872Z,78.27
2023-05-19T04:31:01.869Z,77.44
2023-05-19T04:32:01.826Z,77.44
2023-05-19T04:33:01.889Z,76.21
2023-05-19T04:34:01.802Z,78.27
2023-05-19T04:35:01.824Z,77.34
2023-05-19T04:36:01.795Z,77.13
2023-05-19T04:37:01.779Z,77.03
2023-05-19T04:38:01.784Z,75.59
2023-05-19T04:39:01.741Z,75.38
2023-05-19T04:40:01.802Z,76.31
2023-05-19T04:41:01.816Z,77.85
2023-05-19T04:42:01.772Z,76.00
2023-05-19T04:43:01.738Z,77.03
2023-05-19T04:44:01.701Z,75.49
2023-05-19T04:45:01.711Z,77.03
2023-05-19T04:46:01.676Z,77.34
2023-05-19T04:47:01.815Z,76.82
2023-05-19T04:48:01.716Z,76.00
2023-05-19T04:49:01.654Z,76.62
2023-05-19T04:50:01.697Z,75.80
2023-05-19T04:51:01.674Z,75.90
2023-05-19T04:52:01.662Z,76.21
2023-05-19T04:53:01.592Z,75.80
2023-05-19T04:54:01.667Z,76.10
2023-05-19T04:55:01.584Z,76.42
2023-05-19T04:56:01.572Z,78.78
2023-05-19T04:57:01.616Z,77.95
2023-05-19T04:58:01.585Z,77.85
2023-05-19T04:59:01.540Z,76.00
2023-05-19T05:00:01.545Z,75.90
2023-05-19T05:01:01.523Z,78.16
2023-05-19T05:02:01.551Z,78.47
2023-05-19T05:03:01.632Z,76.82
2023-05-19T05:04:01.561Z,76.31
2023-05-19T05:05:01.477Z,77.23
2023-05-19T05:06:01.495Z,78.57
2023-05-19T05:07:01.538Z,77.23
2023-05-19T05:08:01.467Z,76.51
2023-05-19T05:09:01.464Z,78.47
2023-05-19T05:10:01.428Z,77.13
2023-05-19T05:11:01.444Z,77.92
2023-05-19T05:12:01.418Z,77.10
2023-05-19T05:13:01.394Z,76.28
2023-05-19T05:14:01.393Z,78.64
2023-05-19T05:15:01.401Z,77.81
2023-05-19T05:16:01.403Z,76.79
2023-05-19T05:17:01.345Z,77.71
2023-05-19T05:18:01.382Z,77.10
2023-05-19T05:19:01.387Z,76.28
2023-05-19T05:20:01.436Z,77.10
2023-05-19T05:21:01.336Z,75.97
2023-05-19T05:22:01.297Z,77.10
2023-05-19T05:23:01.279Z,76.07
2023-05-19T05:24:01.295Z,76.17
2023-05-19T05:25:01.369Z,76.68
2023-05-19T05:26:01.269Z,77.00
2023-05-19T05:27:01.274Z,80.28
2023-05-19T05:28:01.261Z,77.51
2023-05-19T05:29:01.311Z,77.37
2023-05-19T05:30:01.230Z,76.34
2023-05-19T05:31:01.281Z,76.75
2023-05-19T05:32:01.281Z,76.65
2023-05-19T05:33:01.250Z,75.73
2023-05-19T05:34:01.189Z,76.14
2023-05-19T05:35:01.272Z,78.60
2023-05-19T05:36:01.153Z,76.04
2023-05-19T05:37:01.134Z,76.96
2023-05-19T05:38:01.155Z,77.54
2023-05-19T05:39:01.127Z,75.28
2023-05-19T05:40:01.110Z,77.74
2023-05-19T05:41:01.098Z,77.23
2023-05-19T05:42:01.148Z,75.38
2023-05-19T05:43:01.104Z,75.69
2023-05-19T05:44:01.083Z,77.64
2023-05-19T05:45:01.106Z,79.38
2023-05-19T05:46:01.101Z,76.89
2023-05-19T05:47:01.032Z,74.63
2023-05-19T05:48:01.225Z,75.15
2023-05-19T05:49:01.039Z,76.99
2023-05-19T05:50:01.033Z,76.17
2023-05-19T05:51:01.013Z,75.24
2023-05-19T05:52:06.373Z,76.48
2023-05-19T05:53:00.959Z,76.14
2023-05-19T05:54:00.955Z,75.73
2023-05-19T05:55:00.937Z,73.78
2023-05-19T05:56:00.955Z,73.78
2023-05-19T05:57:00.940Z,74.60
2023-05-19T05:58:00.944Z,75.52
2023-05-19T05:59:00.963Z,74.29
2023-05-19T06:00:00.901Z,73.47
2023-05-19T06:01:00.897Z,73.98
2023-05-19T06:02:00.962Z,73.98
2023-05-19T06:03:00.900Z,74.87
2023-05-19T06:04:00.852Z,73.33
2023-05-19T06:05:00.903Z,72.20
2023-05-19T06:06:00.985Z,73.74
2023-05-19T06:07:00.863Z,73.03
2023-05-19T06:08:00.828Z,73.54
2023-05-19T06:09:00.834Z,73.44
2023-05-19T06:10:00.794Z,73.40
2023-05-19T06:11:00.758Z,73.61
2023-05-19T06:12:00.778Z,76.06
2023-05-19T06:13:00.757Z,75.42
2023-05-19T06:14:00.790Z,74.39
2023-05-19T06:15:00.763Z,73.88
2023-05-19T06:16:01.985Z,73.06
2023-05-19T06:17:00.712Z,74.46
2023-05-19T06:18:00.775Z,72.72
2023-05-19T06:19:00.728Z,73.13
2023-05-19T06:20:00.700Z,73.85
2023-05-19T06:21:00.657Z,71.56
2023-05-19T06:22:00.699Z,71.46
2023-05-19T06:23:00.646Z,70.43
2023-05-19T06:24:00.722Z,70.64
2023-05-19T06:25:00.695Z,72.17
2023-05-19T06:26:00.667Z,72.65
2023-05-19T06:27:00.620Z,71.73
2023-05-19T06:28:00.632Z,70.92
2023-05-19T06:29:00.591Z,70.51
2023-05-19T06:30:00.588Z,71.70
2023-05-19T06:31:00.619Z,70.17
2023-05-19T06:32:00.630Z,70.37
2023-05-19T06:33:00.616Z,70.37
2023-05-19T06:34:00.543Z,69.56
2023-05-19T06:35:00.544Z,69.24
2023-05-19T06:36:00.531Z,70.98
2023-05-19T06:37:00.500Z,69.62
2023-05-19T06:38:00.571Z,70.64
2023-05-19T06:39:02.539Z,70.34
2023-05-19T06:40:00.472Z,69.21
2023-05-19T06:41:00.467Z,68.70
2023-05-19T06:42:00.483Z,68.80
2023-05-19T06:43:00.493Z,70.44
2023-05-19T06:44:00.437Z,69.32
2023-05-19T06:45:00.426Z,68.47
2023-05-19T06:46:00.427Z,68.98
2023-05-19T06:47:00.462Z,70.51
2023-05-19T06:48:00.508Z,69.90
2023-05-19T06:49:00.396Z,70.92
2023-05-19T06:50:01.199Z,71.60
2023-05-19T06:51:00.407Z,68.54
2023-05-19T06:52:00.366Z,70.78
2023-05-19T06:53:00.325Z,71.80
2023-05-19T06:54:00.347Z,69.25
2023-05-19T06:55:00.304Z,70.27
2023-05-19T06:56:00.554Z,69.15
2023-05-19T06:57:00.290Z,68.40
2023-05-19T06:58:00.269Z,71.97
2023-05-19T06:59:00.309Z,69.73
2023-05-19T07:00:00.284Z,66.64
2023-05-19T07:01:00.264Z,65.83
2023-05-19T07:02:00.374Z,65.52
2023-05-19T07:03:00.325Z,65.39
2023-05-19T07:04:00.298Z,64.26
2023-05-19T07:05:00.204Z,66.00
2023-05-19T07:06:00.212Z,64.64
2023-05-19T07:07:00.197Z,66.58
2023-05-19T07:08:00.219Z,65.73
2023-05-19T07:09:00.190Z,63.70
2023-05-19T07:10:00.205Z,64.51
2023-05-19T07:11:00.157Z,64.89
2023-05-19T07:12:00.165Z,62.85
2023-05-19T07:13:00.122Z,62.55
2023-05-19T07:14:00.185Z,63.64
2023-05-19T07:15:00.114Z,64.86
2023-05-19T07:16:00.223Z,62.01
2023-05-19T07:17:00.057Z,63.00
2023-05-19T07:18:00.235Z,62.18
2023-05-19T07:19:00.227Z,63.30
2023-05-19T07:20:00.061Z,61.17
2023-05-19T07:21:00.026Z,61.85
2023-05-19T07:22:00.049Z,61.24
2023-05-19T07:22:59.996Z,62.36
2023-05-19T07:24:00.049Z,62.66
2023-05-19T07:25:00.026Z,61.55
2023-05-19T07:26:00.013Z,60.33
2023-05-19T07:26:59.972Z,59.11
2023-05-19T07:28:00.033Z,59.62
2023-05-19T07:28:59.944Z,60.33
2023-05-19T07:29:59.934Z,61.82
2023-05-19T07:30:59.976Z,62.43
2023-05-19T07:32:00.026Z,59.59
2023-05-19T07:32:59.972Z,59.99
2023-05-19T07:33:59.885Z,59.79
2023-05-19T07:34:59.924Z,62.13
2023-05-19T07:35:59.876Z,60.88
2023-05-19T07:36:59.882Z,59.56
2023-05-19T07:37:59.876Z,60.44
2023-05-19T07:38:59.915Z,59.84
2023-05-19T07:39:59.876Z,58.39
2023-05-19T07:40:59.851Z,57.48
2023-05-19T07:41:59.833Z,59.30
2023-05-19T07:42:59.811Z,58.80
2023-05-19T07:43:59.800Z,61.33
2023-05-19T07:44:59.794Z,61.13
2023-05-19T07:45:59.839Z,59.70
2023-05-19T07:46:59.760Z,60.35
2023-05-19T07:47:59.780Z,59.03
2023-05-19T07:48:59.748Z,61.66
2023-05-19T07:49:59.757Z,60.44
2023-05-19T07:50:59.720Z,61.16
2023-05-19T07:51:59.740Z,62.95
2023-05-19T07:52:59.684Z,61.74
2023-05-19T07:53:59.694Z,60.42
2023-05-19T07:54:59.672Z,59.17
2023-05-19T07:55:59.654Z,59.27
2023-05-19T07:56:59.651Z,59.55
2023-05-19T07:57:59.635Z,59.34
2023-05-19T07:58:59.677Z,59.05
2023-05-19T07:59:59.629Z,59.22
2023-05-19T08:00:59.614Z,58.61
2023-05-19T08:01:59.614Z,59.12
2023-05-19T08:02:59.633Z,59.59
2023-05-19T08:03:59.768Z,58.89
2023-05-19T08:04:59.606Z,58.58
2023-05-19T08:05:59.577Z,57.57
2023-05-19T08:06:59.563Z,58.86
2023-05-19T08:07:59.552Z,57.75
2023-05-19T08:08:59.500Z,57.42
2023-05-19T08:09:59.540Z,56.91
2023-05-19T08:10:59.517Z,55.80
2023-05-19T08:11:59.488Z,55.49
2023-05-19T08:12:59.470Z,54.69
2023-05-19T08:13:59.476Z,56.98
2023-05-19T08:15:01.328Z,54.86
2023-05-19T08:15:59.578Z,57.49
2023-05-19T08:16:59.434Z,56.98
2023-05-19T08:17:59.462Z,55.98
2023-05-19T08:18:59.536Z,55.57
2023-05-19T08:19:59.525Z,57.16
2023-05-19T08:20:59.369Z,56.85
2023-05-19T08:21:59.400Z,55.54
2023-05-19T08:22:59.379Z,55.92
2023-05-19T08:23:59.369Z,55.92
2023-05-19T08:24:59.383Z,56.30
2023-05-19T08:25:59.392Z,55.09
2023-05-19T08:26:59.366Z,53.47
2023-05-19T08:27:59.346Z,53.25
2023-05-19T08:28:59.326Z,52.84
2023-05-19T08:29:59.321Z,53.52
2023-05-19T08:30:59.359Z,54.33
2023-05-19T08:31:59.316Z,51.38
2023-05-19T08:32:59.333Z,51.59
2023-05-19T08:33:59.292Z,52.77
2023-05-19T08:34:59.252Z,51.86
2023-05-19T08:35:59.263Z,49.93
2023-05-19T08:36:59.258Z,48.82
2023-05-19T08:37:59.219Z,49.80
2023-05-19T08:38:59.239Z,49.70
2023-05-19T08:39:59.187Z,50.38
2023-05-19T08:40:59.207Z,48.47
2023-05-19T08:41:59.194Z,48.55
2023-05-19T08:42:59.187Z,48.65
2023-05-19T08:43:59.148Z,49.33
2023-05-19T08:44:59.185Z,48.32
2023-05-19T08:45:59.124Z,50.53
2023-05-19T08:46:59.284Z,46.11
2023-05-19T08:47:59.163Z,49.30
2023-05-19T08:48:59.097Z,48.20
2023-05-19T08:49:59.105Z,47.80
2023-05-19T08:50:59.059Z,46.67
2023-05-19T08:51:59.097Z,47.07
2023-05-19T08:52:59.082Z,43.96
2023-05-19T08:53:59.057Z,44.87
2023-05-19T08:54:59.072Z,45.65
2023-05-19T08:55:59.080Z,44.44
2023-05-19T08:56:59.013Z,46.53
2023-05-19T08:57:59.044Z,45.83
2023-05-19T08:58:59.001Z,41.51
2023-05-19T08:59:59.010Z,42.21
2023-05-19T09:00:59.049Z,42.21
2023-05-19T09:01:58.958Z,44.22
2023-05-19T09:03:05.937Z,42.49
2023-05-19T09:03:59.077Z,42.99
2023-05-19T09:04:59.058Z,43.60
2023-05-19T09:05:58.979Z,43.58
2023-05-19T09:06:58.937Z,44.08
2023-05-19T09:07:58.918Z,44.08
2023-05-19T09:08:58.942Z,44.68
2023-05-19T09:09:58.893Z,44.68
2023-05-19T09:10:58.923Z,41.57
2023-05-19T09:11:58.839Z,45.46
2023-05-19T09:12:58.896Z,44.16
2023-05-19T09:13:58.871Z,44.46
2023-05-19T09:14:58.878Z,40.13
2023-05-19T09:15:58.843Z,38.13
2023-05-19T09:16:58.827Z,38.93
2023-05-19T09:17:58.869Z,40.43
2023-05-19T09:18:58.910Z,39.91
2023-05-19T09:19:58.792Z,39.81
2023-05-19T09:20:58.773Z,39.72
2023-05-19T09:21:58.797Z,40.00
2023-05-19T09:22:58.764Z,40.39
2023-05-19T09:23:58.718Z,38.70
2023-05-19T09:24:58.762Z,40.00
2023-05-19T09:25:58.718Z,40.39
2023-05-19T09:27:00.278Z,38.68
2023-05-19T09:27:58.697Z,40.58
2023-05-19T09:28:58.678Z,38.87
2023-05-19T09:29:58.656Z,40.16
2023-05-19T09:30:58.679Z,38.26
2023-05-19T09:31:58.690Z,39.95
2023-05-19T09:32:58.706Z,38.66
2023-05-19T09:33:58.611Z,37.76
2023-05-19T09:34:58.658Z,38.04
2023-05-19T09:35:58.587Z,38.44
2023-05-19T09:36:58.577Z,37.84
2023-05-19T09:37:58.563Z,37.56
2023-05-19T09:38:58.568Z,35.48
2023-05-19T09:39:58.575Z,38.68
2023-05-19T09:40:58.549Z,37.19
2023-05-19T09:41:58.653Z,37.90
2023-05-19T09:42:58.525Z,38.01
2023-05-19T09:43:58.637Z,40.52
2023-05-19T09:44:58.506Z,39.51
2023-05-19T09:45:58.572Z,40.41
2023-05-19T09:46:58.591Z,36.61
2023-05-19T09:47:58.501Z,37.21
2023-05-19T09:48:58.470Z,37.19
2023-05-19T09:49:58.453Z,36.88
2023-05-19T09:50:58.437Z,37.18
2023-05-19T09:51:58.553Z,35.96
2023-05-19T09:52:58.420Z,36.46
2023-05-19T09:53:58.468Z,35.16
2023-05-19T09:54:58.515Z,38.56
2023-05-19T09:55:58.410Z,38.26
2023-05-19T09:56:58.396Z,35.74
2023-05-19T09:57:58.401Z,40.53
2023-05-19T09:58:58.416Z,38.02
2023-05-19T09:59:58.365Z,37.02
2023-05-19T10:00:58.402Z,37.02
2023-05-19T10:01:58.390Z,35.61
2023-05-19T10:02:58.377Z,37.98
2023-05-19T10:03:58.336Z,36.69
2023-05-19T10:04:58.338Z,34.48
2023-05-19T10:05:58.269Z,33.76
2023-05-19T10:06:58.366Z,35.66
2023-05-19T10:07:58.300Z,36.16
2023-05-19T10:08:58.261Z,33.76
2023-05-19T10:09:58.755Z,36.46
2023-05-19T10:10:58.261Z,34.56
2023-05-19T10:11:58.255Z,33.18
2023-05-19T10:12:58.225Z,32.98
2023-05-19T10:13:58.203Z,31.90
2023-05-19T10:14:58.253Z,30.92
2023-05-19T10:15:59.747Z,31.24
2023-05-19T10:16:58.271Z,32.45
2023-05-19T10:17:58.283Z,33.04
2023-05-19T10:18:58.202Z,32.25
2023-05-19T10:19:58.168Z,32.75
2023-05-19T10:20:58.456Z,32.26
2023-05-19T10:21:58.173Z,32.56
2023-05-19T10:22:58.108Z,32.86
2023-05-19T10:23:58.167Z,31.96
2023-05-19T10:24:58.112Z,31.48
2023-05-19T10:25:58.111Z,32.28
2023-05-19T10:26:58.083Z,31.87
2023-05-19T10:27:58.097Z,33.96
2023-05-19T10:28:58.048Z,33.26
2023-05-19T10:29:58.024Z,35.16
2023-05-19T10:30:58.046Z,33.56
2023-05-19T10:31:58.046Z,34.46
2023-05-19T10:32:58.061Z,35.06
2023-05-19T10:33:58.014Z,36.16
2023-05-19T10:34:58.031Z,36.76
2023-05-19T10:35:57.983Z,34.56
2023-05-19T10:36:57.986Z,33.98
2023-05-19T10:37:58.049Z,33.39
2023-05-19T10:38:58.028Z,33.80
2023-05-19T10:39:57.928Z,34.69
2023-05-19T10:40:57.966Z,34.99
2023-05-19T10:41:57.995Z,36.60
2023-05-19T10:42:57.924Z,34.78
2023-05-19T10:43:57.896Z,34.28
2023-05-19T10:44:57.895Z,35.98
2023-05-19T10:45:57.877Z,35.38
2023-05-19T10:46:57.948Z,37.76
2023-05-19T10:47:57.917Z,36.26
2023-05-19T10:48:57.839Z,35.06
2023-05-19T10:49:57.847Z,37.06
2023-05-19T10:50:57.854Z,37.74
2023-05-19T10:51:57.845Z,36.34
2023-05-19T10:52:57.915Z,35.54
2023-05-19T10:53:57.814Z,36.94
2023-05-19T10:54:57.838Z,33.43
2023-05-19T10:55:57.797Z,35.41
2023-05-19T10:56:57.784Z,36.01
2023-05-19T10:57:57.868Z,35.89
2023-05-19T10:58:57.785Z,34.99
2023-05-19T10:59:57.777Z,34.08
2023-05-19T11:00:57.825Z,35.47
2023-05-19T11:01:57.769Z,36.07
2023-05-19T11:02:57.818Z,35.08
2023-05-19T11:03:58.001Z,36.97
2023-05-19T11:04:57.694Z,35.58
2023-05-19T11:05:57.669Z,37.57
2023-05-19T11:06:57.762Z,35.29
2023-05-19T11:07:57.776Z,34.80
2023-05-19T11:08:57.663Z,34.99
2023-05-19T11:09:57.684Z,37.17
2023-05-19T11:10:57.688Z,35.08
2023-05-19T11:11:57.642Z,34.48
2023-05-19T11:12:58.319Z,33.68
2023-05-19T11:13:57.594Z,35.17
2023-05-19T11:14:57.571Z,33.97
2023-05-19T11:15:57.664Z,33.55
2023-05-19T11:16:57.743Z,34.33
2023-05-19T11:17:57.691Z,33.81
2023-05-19T11:18:57.733Z,32.23
2023-05-19T11:19:57.524Z,33.02
2023-05-19T11:20:57.592Z,34.69
2023-05-19T11:21:57.608Z,33.00
2023-05-19T11:22:57.613Z,34.99
2023-05-19T11:23:57.554Z,34.20
2023-05-19T11:24:57.511Z,35.27
2023-05-19T11:25:57.536Z,34.76
2023-05-19T11:26:57.551Z,34.34
2023-05-19T11:27:57.492Z,32.66
2023-05-19T11:28:57.452Z,33.85
2023-05-19T11:29:57.481Z,33.94
2023-05-19T11:30:57.443Z,33.04
2023-05-19T11:31:57.533Z,33.83
2023-05-19T11:32:57.493Z,32.35
2023-05-19T11:33:57.427Z,33.34
2023-05-19T11:34:57.388Z,33.92
2023-05-19T11:35:57.496Z,32.02
2023-05-19T11:36:57.390Z,31.31
2023-05-19T11:37:57.379Z,31.81
2023-05-19T11:38:57.366Z,32.48
2023-05-19T11:39:57.374Z,32.18
2023-05-19T11:40:57.411Z,31.77
2023-05-19T11:41:57.380Z,31.38
2023-05-19T11:42:57.338Z,30.39
2023-05-19T11:43:57.292Z,31.36
2023-05-19T11:44:57.332Z,30.57
2023-05-19T11:45:57.330Z,29.97
2023-05-19T11:46:57.374Z,29.10
2023-05-19T11:48:02.350Z,31.57
2023-05-19T11:48:57.272Z,30.79
2023-05-19T11:49:57.273Z,28.89
2023-05-19T11:50:57.400Z,29.78
2023-05-19T11:51:57.213Z,30.77
2023-05-19T11:52:57.251Z,29.78
2023-05-19T11:53:57.227Z,30.21
2023-05-19T11:54:57.292Z,30.98
2023-05-19T11:55:57.285Z,30.57
2023-05-19T11:56:57.265Z,28.88
2023-05-19T11:58:03.914Z,28.08
2023-05-19T11:58:57.282Z,30.06
2023-05-19T11:59:57.159Z,29.86
2023-05-19T12:00:57.194Z,29.06
2023-05-19T12:01:57.238Z,29.66
2023-05-19T12:02:57.260Z,30.37
2023-05-19T12:03:57.173Z,29.71
2023-05-19T12:04:57.208Z,29.43
2023-05-19T12:05:57.122Z,30.10
2023-05-19T12:06:57.134Z,30.30
2023-05-19T12:07:57.084Z,30.09
2023-05-19T12:08:57.085Z,30.06
2023-05-19T12:09:57.053Z,29.58
2023-05-19T12:10:57.034Z,29.30
2023-05-19T12:11:57.089Z,30.41
2023-05-19T12:12:57.072Z,30.21
2023-05-19T12:13:57.076Z,30.57
2023-05-19T12:14:57.033Z,31.65
2023-05-19T12:15:57.046Z,30.24
2023-05-19T12:16:57.075Z,30.33
2023-05-19T12:17:57.105Z,28.25
2023-05-19T12:18:56.993Z,27.76
2023-05-19T12:19:56.972Z,28.14
2023-05-19T12:20:56.965Z,29.25
2023-05-19T12:21:56.924Z,30.16
2023-05-19T12:22:56.973Z,29.66
2023-05-19T12:23:56.969Z,30.47
2023-05-19T12:24:56.923Z,30.79
2023-05-19T12:25:56.915Z,29.81
2023-05-19T12:26:56.954Z,31.41
2023-05-19T12:27:58.022Z,30.53
2023-05-19T12:28:56.927Z,32.82
2023-05-19T12:29:56.861Z,31.55
2023-05-19T12:30:56.849Z,33.24
2023-05-19T12:31:56.871Z,32.73
2023-05-19T12:32:56.858Z,31.24
2023-05-19T12:33:56.852Z,31.32
2023-05-19T12:34:56.826Z,31.23
2023-05-19T12:35:56.799Z,31.13
2023-05-19T12:36:56.866Z,32.21
2023-05-19T12:37:56.801Z,33.09
2023-05-19T12:38:56.843Z,31.41
2023-05-19T12:39:56.795Z,31.41
2023-05-19T12:40:56.778Z,31.31
2023-05-19T12:41:56.802Z,30.04
2023-05-19T12:42:56.787Z,32.02
2023-05-19T12:43:56.727Z,31.32
2023-05-19T12:44:56.779Z,30.76
2023-05-19T12:45:56.755Z,31.84
2023-05-19T12:46:56.711Z,31.62
2023-05-19T12:47:57.017Z,32.02
2023-05-19T12:48:56.675Z,31.35
2023-05-19T12:49:56.704Z,33.06
2023-05-19T12:50:56.657Z,32.66
2023-05-19T12:51:56.694Z,33.75